createdAt,value
2023-01-04T00:01:49.589Z,100.0
2023-01-04T00:07:21.237Z,100.0
2023-01-04T00:12:52.844Z,100.0
2023-01-04T00:18:24.676Z,99.37
2023-01-04T00:23:56.343Z,97.89
2023-01-04T00:29:28.881Z,99.53
2023-01-04T00:34:59.819Z,100.0
2023-01-04T00:40:31.498Z,100.0
2023-01-04T00:46:03.326Z,100.0
2023-01-04T00:51:35.204Z,100.0
2023-01-04T00:57:06.795Z,100.0
2023-01-04T01:02:43.233Z,100.0
2023-01-04T01:08:14.409Z,99.67
2023-01-04T01:13:46.207Z,100.0
2023-01-04T01:19:17.976Z,100.0
2023-01-04T01:24:49.595Z,99.37
2023-01-04T01:30:21.401Z,98.26
2023-01-04T01:35:53.953Z,95.87
2023-01-04T01:41:25.006Z,95.79
2023-01-04T01:46:56.722Z,96.51
2023-01-04T01:52:28.299Z,96.64
2023-01-04T01:58:00.033Z,96.81
2023-01-04T02:03:36.298Z,95.99
2023-01-04T02:09:07.830Z,96.25
2023-01-04T02:14:39.524Z,96.14
2023-01-04T02:20:11.282Z,95.59
2023-01-04T02:25:43.035Z,95.92
2023-01-04T02:31:14.985Z,95.83
2023-01-04T02:36:47.188Z,96.63
2023-01-04T02:42:18.295Z,95.87
2023-01-04T02:47:49.973Z,95.29
2023-01-04T02:53:21.667Z,96.08
2023-01-04T02:58:53.576Z,97.14
2023-01-04T03:04:29.622Z,97.08
2023-01-04T03:10:01.298Z,97.9
2023-01-04T03:15:32.891Z,98.03
2023-01-04T03:21:04.569Z,100.0
2023-01-04T03:26:36.431Z,100.0
2023-01-04T03:32:08.093Z,100.0
2023-01-04T03:37:39.926Z,100.0
2023-01-04T03:43:11.480Z,98.74
2023-01-04T03:48:43.291Z,97.79
2023-01-04T03:54:14.920Z,97.64
2023-01-04T03:59:46.638Z,98.13
2023-01-04T04:05:24.856Z,99.37
2023-01-04T04:10:56.567Z,100.0
2023-01-04T04:16:28.380Z,100.0
2023-01-04T04:22:00.026Z,100.0
2023-01-04T04:27:31.664Z,100.0
2023-01-04T04:33:03.707Z,100.0
2023-01-04T04:38:35.163Z,100.0
2023-01-04T04:44:06.820Z,100.0
2023-01-04T04:49:39.696Z,100.0
2023-01-04T04:55:10.449Z,99.47
2023-01-04T05:00:42.227Z,99.19
2023-01-04T05:06:18.209Z,98.75
2023-01-04T05:11:49.924Z,97.81
2023-01-04T05:17:21.685Z,96.99
2023-01-04T05:22:53.513Z,97.01
2023-01-04T05:28:25.776Z,96.18
2023-01-04T05:33:56.912Z,95.61
2023-01-04T05:39:28.581Z,95.05
2023-01-04T05:45:00.235Z,94.63
2023-01-04T05:50:31.887Z,94.39
2023-01-04T05:56:03.684Z,93.72
2023-01-04T06:01:35.588Z,92.76
2023-01-04T06:07:13.489Z,92.85
2023-01-04T06:12:45.277Z,92.03
2023-01-04T06:18:17.124Z,91.83
2023-01-04T06:23:48.696Z,91.85
2023-01-04T06:29:20.392Z,91.71
2023-01-04T06:34:52.172Z,91.64
2023-01-04T06:40:23.870Z,91.3
2023-01-04T06:45:55.754Z,91.2
2023-01-04T06:51:27.270Z,92.28
2023-01-04T06:56:59.104Z,92.19
2023-01-04T07:02:31.318Z,91.72
2023-01-04T07:08:08.871Z,91.79
2023-01-04T07:13:38.669Z,91.84
2023-01-04T07:19:10.537Z,91.28
2023-01-04T07:24:42.025Z,90.84
2023-01-04T07:30:13.827Z,92.01
2023-01-04T07:35:45.865Z,93.64
2023-01-04T07:41:17.348Z,95.54
2023-01-04T07:46:49.135Z,97.25
2023-01-04T07:52:20.832Z,99.02
2023-01-04T07:57:52.654Z,99.56
2023-01-04T08:03:24.192Z,99.1
2023-01-04T08:09:00.291Z,99.77
2023-01-04T08:14:32.322Z,100.0
2023-01-04T08:20:03.781Z,99.95
2023-01-04T08:25:35.580Z,99.18
2023-01-04T08:31:07.385Z,98.25
2023-01-04T08:36:38.820Z,97.37
2023-01-04T08:42:30.578Z,96.94
2023-01-04T08:47:42.329Z,96.41
2023-01-04T08:53:14.235Z,95.63
2023-01-04T08:58:45.656Z,95.58
2023-01-04T09:04:17.530Z,95.11
2023-01-04T09:09:53.745Z,95.37
2023-01-04T09:15:25.353Z,94.21
2023-01-04T09:20:56.980Z,94.34
2023-01-04T09:26:28.760Z,93.71
2023-01-04T09:32:00.655Z,93.12
2023-01-04T09:37:32.261Z,92.6
2023-01-04T09:43:22.378Z,92.7
2023-01-04T09:48:35.674Z,92.51
2023-01-04T09:54:07.493Z,92.8
2023-01-04T09:59:39.148Z,92.65
2023-01-04T10:05:11.357Z,92.42
2023-01-04T10:10:49.324Z,92.26
2023-01-04T10:17:10.797Z,92.42
2023-01-04T10:21:52.539Z,92.63
2023-01-04T10:27:24.077Z,92.02
2023-01-04T10:32:55.923Z,92.62
2023-01-04T10:38:27.384Z,92.46
2023-01-04T10:44:13.967Z,92.15
2023-01-04T10:49:31.062Z,92.05
2023-01-04T10:55:03.032Z,91.94
2023-01-04T11:00:34.432Z,91.67
2023-01-04T11:06:06.083Z,91.21
2023-01-04T11:11:42.240Z,90.68
2023-01-04T11:17:13.935Z,90.99
2023-01-04T11:22:45.809Z,90.52
2023-01-04T11:28:17.492Z,90.58
2023-01-04T11:33:49.250Z,90.47
2023-01-04T11:39:21.316Z,90.6
2023-01-04T11:44:52.719Z,90.93
2023-01-04T11:50:24.418Z,90.95
2023-01-04T11:55:55.939Z,90.64
2023-01-04T12:01:27.926Z,89.91
2023-01-04T12:06:59.612Z,90.42
2023-01-04T12:12:35.887Z,90.85
2023-01-04T12:18:07.561Z,90.48
2023-01-04T12:23:39.331Z,90.8
2023-01-04T12:29:11.008Z,91.28
2023-01-04T12:34:42.567Z,91.41
2023-01-04T12:40:14.564Z,91.45
2023-01-04T12:45:46.267Z,92.68
2023-01-04T12:51:33.526Z,92.82
2023-01-04T12:56:49.592Z,93.27
2023-01-04T13:02:22.034Z,93.24
2023-01-04T13:07:53.029Z,93.1
2023-01-04T13:13:31.160Z,92.97
2023-01-04T13:19:02.866Z,92.49
2023-01-04T13:24:35.821Z,91.69
2023-01-04T13:30:06.432Z,92.06
2023-01-04T13:35:38.090Z,91.98
2023-01-04T13:41:09.806Z,91.98
2023-01-04T13:46:41.574Z,91.76
2023-01-04T13:52:59.753Z,92.03
2023-01-04T13:57:45.384Z,91.8
2023-01-04T14:03:17.065Z,91.75
2023-01-04T14:08:48.575Z,91.69
2023-01-04T14:14:24.556Z,91.55
2023-01-04T14:19:56.368Z,91.58
2023-01-04T14:25:28.102Z,91.48
2023-01-04T14:30:59.783Z,91.03
2023-01-04T14:36:31.324Z,90.95
2023-01-04T14:42:03.042Z,91.08
2023-01-04T14:47:34.818Z,91.39
2023-01-04T14:53:06.581Z,91.09
2023-01-04T14:58:38.267Z,91.13
2023-01-04T15:04:10.047Z,91.45
2023-01-04T15:09:41.798Z,92.0
2023-01-04T15:15:17.979Z,91.69
2023-01-04T15:20:49.551Z,92.03
2023-01-04T15:26:21.265Z,92.28
2023-01-04T15:31:53.148Z,92.25
2023-01-04T15:37:24.780Z,92.96
2023-01-04T15:42:56.450Z,92.86
2023-01-04T15:48:28.113Z,93.42
2023-01-04T15:53:59.954Z,93.48
2023-01-04T15:59:31.554Z,93.82
2023-01-04T16:05:03.236Z,93.6
2023-01-04T16:10:35.149Z,93.87
2023-01-04T16:16:13.538Z,93.83
2023-01-04T16:21:44.841Z,93.71
2023-01-04T16:27:16.499Z,93.77
2023-01-04T16:32:48.245Z,93.22
2023-01-04T16:38:20.197Z,93.05
2023-01-04T16:43:51.859Z,93.13
2023-01-04T16:49:23.406Z,93.02
2023-01-04T16:54:55.185Z,93.24
2023-01-04T17:00:26.920Z,93.62
2023-01-04T17:05:58.609Z,93.32
2023-01-04T17:17:08.669Z,92.94
2023-01-04T17:22:40.238Z,93.07
2023-01-04T17:28:11.880Z,93.33
2023-01-04T17:33:43.652Z,93.19
2023-01-04T17:39:15.406Z,93.39
2023-01-04T17:44:47.987Z,93.69
2023-01-04T17:50:18.975Z,93.8
2023-01-04T17:55:50.607Z,94.52
2023-01-04T18:01:22.364Z,95.39
2023-01-04T18:06:54.039Z,95.54
2023-01-04T18:12:25.656Z,96.3
2023-01-04T18:18:02.179Z,96.62
2023-01-04T18:23:33.584Z,97.75
2023-01-04T18:29:05.143Z,98.46
2023-01-04T18:34:36.861Z,98.91
2023-01-04T18:40:08.678Z,99.8
2023-01-04T18:45:41.125Z,100.0
2023-01-04T18:51:12.028Z,100.0
2023-01-04T18:56:43.897Z,100.0
2023-01-04T19:02:16.086Z,100.0
2023-01-04T19:07:47.313Z,100.0
2023-01-04T19:13:18.999Z,100.0
2023-01-04T19:18:55.020Z,100.0
2023-01-04T19:24:26.761Z,100.0
2023-01-04T19:29:59.181Z,100.0
2023-01-04T19:35:30.268Z,100.0
2023-01-04T19:41:02.153Z,100.0
2023-01-04T19:46:33.916Z,100.0
2023-01-04T19:52:05.563Z,100.0
2023-01-04T19:57:37.264Z,100.0
2023-01-04T20:03:09.984Z,100.0
2023-01-04T20:08:40.813Z,100.0
2023-01-04T20:14:12.286Z,100.0
2023-01-04T20:19:50.638Z,100.0
2023-01-04T20:25:22.259Z,100.0
2023-01-04T20:30:54.061Z,100.0
2023-01-04T20:36:25.671Z,100.0
2023-01-04T20:41:57.534Z,100.0
2023-01-04T20:47:29.141Z,100.0
2023-01-04T20:53:01.054Z,100.0
2023-01-04T20:58:32.593Z,100.0
2023-01-04T21:04:04.362Z,100.0
2023-01-04T21:09:36.047Z,100.0
2023-01-04T21:15:08.117Z,100.0
2023-01-04T21:20:46.503Z,100.0
2023-01-04T21:26:17.605Z,100.0
2023-01-04T21:31:49.308Z,100.0
2023-01-04T21:37:21.198Z,100.0
2023-01-04T21:42:52.755Z,100.0
2023-01-04T21:48:24.466Z,100.0
2023-01-04T21:53:56.298Z,100.0
2023-01-04T21:59:27.985Z,100.0
2023-01-04T22:05:00.259Z,100.0
2023-01-04T22:10:31.605Z,100.0
2023-01-04T22:16:03.453Z,100.0
2023-01-04T22:21:39.456Z,100.0
2023-01-04T22:27:11.883Z,100.0
2023-01-04T22:32:42.683Z,100.0
2023-01-04T22:38:14.407Z,100.0
2023-01-04T22:43:46.355Z,100.0
2023-01-04T22:49:18.048Z,100.0
2023-01-04T22:54:49.675Z,100.0
2023-01-04T23:00:21.548Z,100.0
2023-01-04T23:05:53.690Z,100.0
2023-01-04T23:11:25.050Z,100.0
2023-01-04T23:16:57.552Z,100.0
2023-01-04T23:22:32.748Z,100.0
2023-01-04T23:28:04.340Z,100.0
2023-01-04T23:33:37.275Z,100.0
2023-01-04T23:39:07.755Z,100.0
2023-01-04T23:44:39.443Z,100.0
2023-01-04T23:50:11.762Z,100.0
2023-01-04T23:55:42.954Z,100.0
